Time;durP1;ratioP1;P1;durP2;ratioP2;P2;SDS_P1;SDS_P2;PMS_P1;PMS_P2;Temp;Humidity;BMP_temperature;BMP_pressure;BME280_temperature;BME280_humidity;BME280_pressure;Samples;Min_cycle;Max_cycle;Signal;HPM_P1;HPM_P2
2024/04/01 00:00:38;;;;;;;7.95;2.83;;;;;;;15.89;58.74;93155.00;5066475;28;20409;-78
2024/04/01 00:03:04;;;;;;;7.88;2.42;;;;;;;16.03;58.59;93170.97;5064098;28;20033;-77
2024/04/01 00:05:30;;;;;;;9.55;2.45;;;;;;;15.75;58.32;93128.72;5060476;28;20037;-77
2024/04/01 00:07:56;;;;;;;10.85;3.22;;;;;;;15.79;58.08;93133.41;5067469;28;20086;-77
2024/04/01 00:10:23;;;;;;;9.23;2.55;;;;;;;15.97;58.67;93166.00;5069335;28;20055;-79
2024/04/01 00:12:48;;;;;;;10.98;3.17;;;;;;;15.95;58.39;93171.44;5069279;28;20117;-79
2024/04/01 00:15:14;;;;;;;10.45;3.45;;;;;;;15.70;58.45;93130.47;5067689;28;20398;-78
2024/04/01 00:17:40;;;;;;;7.82;3.17;;;;;;;15.65;58.31;93130.44;5067360;28;20501;-78
2024/04/01 00:20:07;;;;;;;9.32;2.85;;;;;;;15.83;58.57;93165.59;5068782;28;20032;-78
2024/04/01 00:22:32;;;;;;;13.98;3.70;;;;;;;15.71;58.86;93165.69;5065048;28;20513;-77
2024/04/01 00:24:58;;;;;;;10.02;3.13;;;;;;;15.40;58.59;93116.94;5068957;28;20044;-77
2024/04/01 00:27:23;;;;;;;11.70;2.63;;;;;;;15.72;58.58;93168.06;5068294;28;20040;-77
2024/04/01 00:29:49;;;;;;;9.10;2.95;;;;;;;15.48;58.71;93133.88;5066561;28;20033;-77
2024/04/01 00:32:15;;;;;;;10.45;2.67;;;;;;;15.71;58.50;93161.31;5064544;28;20055;-77
2024/04/01 00:34:40;;;;;;;8.60;2.55;;;;;;;15.49;58.70;93132.84;5068938;28;20036;-77
2024/04/01 00:37:06;;;;;;;11.98;2.70;;;;;;;15.42;58.55;93117.47;5067669;28;20082;-77
2024/04/01 00:39:31;;;;;;;9.30;2.20;;;;;;;15.50;58.63;93132.59;5065987;28;20056;-77
2024/04/01 00:41:57;;;;;;;9.07;1.95;;;;;;;15.44;58.08;93127.59;5068048;28;20044;-77
2024/04/01 00:44:22;;;;;;;8.82;2.67;;;;;;;15.46;57.84;93128.16;5063536;28;20528;-77
2024/04/01 00:46:48;;;;;;;10.30;2.30;;;;;;;15.69;57.88;93167.75;5066778;28;20123;-76
2024/04/01 00:49:13;;;;;;;9.10;3.40;;;;;;;15.32;57.90;93123.34;5061165;28;20028;-76
2024/04/01 00:51:39;;;;;;;7.75;2.30;;;;;;;15.55;57.89;93151.81;5066840;28;20025;-76
2024/04/01 00:54:07;;;;;;;11.15;2.42;;;;;;;15.66;57.92;93173.41;5064773;28;20056;-77
2024/04/01 00:56:34;;;;;;;13.45;2.35;;;;;;;15.54;57.74;93160.59;5067961;28;20064;-77
2024/04/01 00:59:02;;;;;;;11.80;3.00;;;;;;;15.37;58.14;93140.75;5059735;28;20060;-76
2024/04/01 01:01:31;;;;;;;10.45;2.42;;;;;;;15.46;58.20;93156.63;5066761;28;20051;-78
2024/04/01 01:03:58;;;;;;;7.00;2.20;;;;;;;15.14;58.20;93118.47;5063951;28;20032;-77
2024/04/01 01:06:25;;;;;;;7.45;1.92;;;;;;;15.25;58.00;93135.69;5082056;28;20036;-77
2024/04/01 01:08:50;;;;;;;10.95;3.10;;;;;;;15.23;58.05;93129.97;5067684;28;20801;-78
2024/04/01 01:11:17;;;;;;;7.53;2.15;;;;;;;15.23;58.13;93125.56;5065857;28;20032;-77
2024/04/01 01:13:42;;;;;;;12.70;3.40;;;;;;;15.48;57.94;93162.34;5066111;28;20067;-78
2024/04/01 01:16:08;;;;;;;4.88;1.85;;;;;;;15.47;58.08;93169.31;5059973;28;20033;-80
2024/04/01 01:18:34;;;;;;;10.15;2.28;;;;;;;15.25;57.48;93135.69;5067681;28;20047;-80
2024/04/01 01:20:59;;;;;;;8.73;2.50;;;;;;;15.35;57.36;93147.94;5061054;28;20028;-80
2024/04/01 01:23:25;;;;;;;11.50;4.63;;;;;;;15.49;57.23;93163.91;5067151;28;20033;-77
2024/04/01 01:25:50;;;;;;;11.38;3.60;;;;;;;15.45;57.72;93158.44;5065845;28;20405;-77
2024/04/01 01:28:16;;;;;;;14.95;2.70;;;;;;;15.25;57.88;93129.72;5067498;28;20146;-77
2024/04/01 01:30:41;;;;;;;9.95;2.15;;;;;;;15.23;58.11;93135.16;5062261;28;20425;-77
2024/04/01 01:33:07;;;;;;;9.00;2.65;;;;;;;15.39;58.35;93153.44;5067355;28;20029;-79
2024/04/01 01:35:35;;;;;;;5.20;1.70;;;;;;;15.20;58.48;93136.41;5063623;28;20362;-79
2024/04/01 01:38:02;;;;;;;5.93;1.85;;;;;;;15.09;58.44;93126.94;5064275;28;20033;-79
2024/04/01 01:40:28;;;;;;;7.88;3.60;;;;;;;14.91;58.05;93108.09;5061074;28;20036;-79
2024/04/01 01:42:53;;;;;;;12.90;3.20;;;;;;;14.78;57.82;93082.56;5067170;28;20032;-78
2024/04/01 01:45:19;;;;;;;12.63;2.67;;;;;;;15.09;58.17;93132.13;5063663;28;20044;-78
2024/04/01 01:47:44;;;;;;;7.03;2.53;;;;;;;15.13;58.05;93142.78;5061341;28;20403;-78
2024/04/01 01:50:10;;;;;;;7.60;2.08;;;;;;;14.72;57.88;93084.28;5066442;28;20035;-78
2024/04/01 01:52:36;;;;;;;10.18;3.00;;;;;;;15.14;57.69;93141.75;5066762;28;20028;-78
2024/04/01 01:55:03;;;;;;;8.90;2.35;;;;;;;15.00;57.86;93110.28;5064604;28;20097;-78
2024/04/01 01:57:29;;;;;;;7.90;2.00;;;;;;;15.16;57.48;93139.69;5065721;28;20067;-78
2024/04/01 01:59:55;;;;;;;12.90;3.33;;;;;;;14.75;57.62;93078.66;5065871;28;20131;-78
2024/04/01 02:02:21;;;;;;;8.82;2.40;;;;;;;15.06;57.31;93115.28;5064208;28;20123;-77
2024/04/01 02:04:46;;;;;;;10.85;2.88;;;;;;;15.00;57.05;93105.88;5066381;28;20474;-77
2024/04/01 02:07:12;;;;;;;8.88;3.03;;;;;;;15.08;56.92;93122.78;5066127;28;20036;-77
2024/04/01 02:09:37;;;;;;;8.57;2.20;;;;;;;15.11;57.40;93117.13;5065018;28;20075;-78
2024/04/01 02:12:09;;;;;;;10.95;2.55;;;;;;;14.96;57.24;93102.97;5059522;28;20044;-78
2024/04/01 02:14:52;;;;;;;9.98;3.20;;;;;;;15.07;57.17;93109.06;5061170;28;20032;-78
2024/04/01 02:17:18;;;;;;;13.10;2.75;;;;;;;14.96;57.46;93107.38;5065005;28;20025;-78
2024/04/01 02:19:47;;;;;;;8.13;2.10;;;;;;;14.90;57.63;93101.34;5064665;28;20493;-78
2024/04/01 02:22:14;;;;;;;6.70;2.45;;;;;;;15.15;57.88;93138.13;5063939;28;20040;-78
2024/04/01 02:24:40;;;;;;;11.18;2.67;;;;;;;14.86;58.19;93112.41;5064529;28;20107;-77
2024/04/01 02:27:06;;;;;;;5.70;2.03;;;;;;;14.64;58.45;93090.66;5066561;28;20077;-78
2024/04/01 02:29:32;;;;;;;8.65;1.90;;;;;;;15.01;58.27;93153.22;5063203;28;20097;-77
2024/04/01 02:31:57;;;;;;;11.32;3.08;;;;;;;14.73;58.43;93129.00;5061826;28;20045;-77
2024/04/01 02:34:23;;;;;;;8.07;2.03;;;;;;;14.83;58.37;93149.88;5064722;28;20039;-77
2024/04/01 02:36:48;;;;;;;7.55;2.33;;;;;;;14.65;58.53;93128.41;5066280;28;20042;-77
2024/04/01 02:39:17;;;;;;;14.02;2.67;;;;;;;14.56;58.64;93102.19;5063320;28;20040;-77
2024/04/01 02:41:46;;;;;;;7.68;2.30;;;;;;;14.83;58.46;93148.06;5066300;28;20083;-77
2024/04/01 02:44:12;;;;;;;11.02;3.08;;;;;;;14.82;58.72;93150.91;5065055;28;20059;-77
2024/04/01 02:46:39;;;;;;;10.73;2.88;;;;;;;14.79;58.63;93147.00;5060735;28;20546;-78
2024/04/01 02:49:05;;;;;;;8.25;2.47;;;;;;;14.55;58.96;93117.91;5062708;28;20387;-78
2024/04/01 02:51:30;;;;;;;6.82;2.90;;;;;;;14.57;59.02;93111.50;5061512;28;20039;-78
2024/04/01 02:53:56;;;;;;;11.75;2.78;;;;;;;14.82;59.03;93158.66;5065759;28;20048;-80
2024/04/01 02:56:21;;;;;;;7.93;2.88;;;;;;;14.57;59.32;93121.81;5065702;28;20425;-79
2024/04/01 02:59:00;;;;;;;;;;;;;;;;;;;;;
2024/04/01 03:01:31;;;;;;;11.20;3.47;;;;;;;14.43;59.40;93095.53;5054060;28;20040;-78
2024/04/01 03:04:00;;;;;;;8.68;2.88;;;;;;;14.50;59.69;93113.47;5065402;28;20020;-78
2024/04/01 03:06:29;;;;;;;13.27;3.85;;;;;;;14.50;59.76;93115.25;5065775;28;20036;-77
2024/04/01 03:08:55;;;;;;;10.27;2.47;;;;;;;14.62;59.88;93141.03;5061210;28;20051;-78
2024/04/01 03:11:20;;;;;;;5.55;2.40;;;;;;;14.23;59.86;93098.59;5065521;28;20037;-78
2024/04/01 03:13:48;;;;;;;15.27;2.58;;;;;;;14.30;59.93;93109.53;5063490;28;20051;-77
2024/04/01 03:16:14;;;;;;;11.90;2.40;;;;;;;14.50;60.00;93148.84;5063275;28;20211;-78
2024/04/01 03:18:40;;;;;;;10.98;2.30;;;;;;;14.29;60.38;93115.72;5065845;28;20021;-78
2024/04/01 03:21:07;;;;;;;10.55;2.75;;;;;;;14.29;60.25;93128.66;5059633;28;20425;-78
2024/04/01 03:23:33;;;;;;;10.18;2.78;;;;;;;14.30;60.50;93134.56;5065706;28;20036;-77
2024/04/01 03:25:58;;;;;;;12.95;2.83;;;;;;;14.12;60.54;93110.53;5063411;28;20044;-78
2024/04/01 03:28:25;;;;;;;11.00;2.70;;;;;;;14.34;60.63;93147.84;5065356;28;20041;-77
2024/04/01 03:30:50;;;;;;;6.50;2.65;;;;;;;14.27;60.39;93142.81;5063910;28;20035;-77
2024/04/01 03:33:16;;;;;;;12.05;2.50;;;;;;;14.19;60.39;93131.06;5081149;28;20040;-78
2024/04/01 03:35:42;;;;;;;11.27;3.10;;;;;;;14.14;60.42;93118.06;5065409;28;20161;-79
2024/04/01 03:38:08;;;;;;;;;;;;;;;14.37;60.27;93137.81;5062793;28;20120;-78
2024/04/01 03:40:40;;;;;;;10.30;3.33;;;;;;;13.95;60.56;93086.50;5065085;28;20388;-77
2024/04/01 03:43:07;;;;;;;8.38;3.05;;;;;;;13.96;60.29;93104.34;5064795;28;20081;-77
2024/04/01 03:45:33;;;;;;;11.68;3.65;;;;;;;14.08;60.46;93134.50;5063094;28;20072;-76
2024/04/01 03:47:58;;;;;;;10.35;2.50;;;;;;;13.83;60.35;93102.03;5063751;28;20541;-76
2024/04/01 03:50:24;;;;;;;12.45;3.88;;;;;;;13.68;60.34;93105.94;5064135;28;20040;-76
2024/04/01 03:52:49;;;;;;;11.70;3.38;;;;;;;13.83;59.86;93109.78;5065374;28;20494;-77
2024/04/01 03:55:15;;;;;;;9.30;3.20;;;;;;;13.59;60.00;93078.94;5063340;28;20437;-77
2024/04/01 03:57:41;;;;;;;10.82;3.25;;;;;;;13.82;59.90;93106.44;5057401;28;20059;-76
2024/04/01 04:00:19;;;;;;;12.73;4.05;;;;;;;13.95;59.74;93131.19;5064977;28;20151;-76
2024/04/01 04:02:45;;;;;;;11.07;3.00;;;;;;;13.90;59.41;93125.94;5059640;28;20055;-76
2024/04/01 04:05:13;;;;;;;14.05;3.40;;;;;;;13.45;59.63;93068.06;5066577;28;20436;-77
2024/04/01 04:07:39;;;;;;;12.18;3.20;;;;;;;13.47;60.05;93073.84;5066823;28;20426;-77
2024/04/01 04:10:18;;;;;;;13.32;3.65;;;;;;;14.01;59.57;93137.22;5067558;28;20028;-77
2024/04/01 04:12:43;;;;;;;17.20;3.78;;;;;;;13.76;59.83;93120.28;5084037;28;20025;-79
2024/04/01 04:15:09;;;;;;;13.80;3.28;;;;;;;14.01;59.62;93150.13;5066315;28;20032;-78
2024/04/01 04:17:35;;;;;;;12.20;3.13;;;;;;;14.00;59.39;93144.19;5066375;28;20420;-77
2024/04/01 04:20:00;;;;;;;12.18;3.15;;;;;;;13.86;59.52;93135.16;5068411;28;20107;-77
2024/04/01 04:22:26;;;;;;;10.15;2.80;;;;;;;13.96;59.75;93144.88;5067581;28;20024;-76
2024/04/01 04:25:03;;;;;;;14.32;3.00;;;;;;;13.93;59.57;93135.78;5065976;28;20044;-79
2024/04/01 04:27:41;;;;;;;10.38;3.42;;;;;;;13.48;60.24;93071.00;5065863;28;20398;-80
2024/04/01 04:30:12;;;;;;;10.85;3.78;;;;;;;13.46;60.03;93072.22;5066200;28;20032;-80
2024/04/01 04:32:40;;;;;;;10.63;3.30;;;;;;;14.05;60.47;93168.53;5068403;28;20028;-80
2024/04/01 04:35:08;;;;;;;14.40;3.58;;;;;;;13.78;60.95;93123.41;5060457;28;20086;-80
2024/04/01 04:37:34;;;;;;;9.43;3.22;;;;;;;13.56;61.07;93094.88;5064720;28;20047;-79
2024/04/01 04:40:00;;;;;;;13.10;3.60;;;;;;;13.84;61.68;93150.88;5064028;28;20028;-79
2024/04/01 04:42:37;;;;;;;13.18;4.13;;;;;;;13.93;61.49;93147.94;5054688;28;20509;-80
2024/04/01 04:45:32;;;;;;;8.50;4.18;;;;;;;13.95;61.36;93148.47;5051365;28;20087;-80
2024/04/01 04:47:57;;;;;;;14.00;5.03;;;;;;;13.69;61.79;93128.16;5054414;28;20032;-80
2024/04/01 04:50:28;;;;;;;13.00;4.15;;;;;;;13.93;61.71;93153.09;5066989;28;20075;-80
2024/04/01 04:52:54;;;;;;;13.82;4.00;;;;;;;13.64;61.58;93107.41;5053500;28;20405;-79
2024/04/01 04:55:22;;;;;;;12.30;3.58;;;;;;;13.65;61.70;93105.63;5059141;28;20441;-79
2024/04/01 04:57:47;;;;;;;16.17;3.65;;;;;;;13.73;61.66;93110.41;5062323;28;20068;-79
2024/04/01 05:00:23;;;;;;;18.23;4.25;;;;;;;14.09;61.05;93156.72;5054427;28;20568;-79
2024/04/01 05:02:51;;;;;;;11.60;3.67;;;;;;;13.57;60.39;93065.47;5065375;28;20481;-79
2024/04/01 05:05:23;;;;;;;19.45;5.13;;;;;;;14.28;59.64;93155.50;5062267;28;20190;-80
2024/04/01 05:08:01;;;;;;;14.43;3.95;;;;;;;14.04;58.96;93103.19;5052231;28;20024;-80
2024/04/01 05:10:31;;;;;;;10.13;3.05;;;;;;;13.97;58.39;93079.28;5056916;28;20896;-81
2024/04/01 05:13:21;;;;;;;13.18;2.67;;;;;;;14.28;58.05;93111.59;5058914;28;20065;-79
2024/04/01 05:15:47;;;;;;;13.10;3.05;;;;;;;14.56;56.76;93153.06;5059778;28;20173;-79
2024/04/01 05:19:07;;;;;;;16.80;3.45;;;;;;;14.73;55.89;93134.97;5052760;28;20135;-79
2024/04/01 05:21:17;;;;;;;14.57;4.45;;;;;;;15.02;55.09;93159.94;5051087;28;20032;-79
2024/04/01 05:23:43;;;;;;;10.55;2.90;;;;;;;15.11;54.58;93155.94;5054701;28;20024;-79
2024/04/01 05:29:11;;;;;;;14.75;3.28;;;;;;;15.06;52.64;93099.75;5056309;28;20163;-79
2024/04/01 05:31:37;;;;;;;16.30;3.92;;;;;;;15.65;51.87;93164.09;5056741;28;20495;-79
2024/04/01 05:34:05;;;;;;;11.38;3.70;;;;;;;15.15;51.08;93063.09;5055501;28;20035;-80
2024/04/01 05:36:32;;;;;;;12.27;2.70;;;;;;;15.93;50.03;93152.78;5054084;28;20063;-81
2024/04/01 05:38:57;;;;;;;14.95;3.53;;;;;;;16.07;49.64;93137.63;5054363;28;20025;-82
2024/04/01 05:41:23;;;;;;;12.23;2.55;;;;;;;16.32;48.84;93156.19;5051277;28;20029;-82
2024/04/01 05:44:02;;;;;;;;;;;;;;;;;;;;;
2024/04/01 05:46:30;;;;;;;12.48;2.63;;;;;;;16.91;48.14;93178.72;5057252;28;20776;-80
2024/04/01 05:49:01;;;;;;;9.95;2.60;;;;;;;16.53;47.59;93090.53;5050903;28;20037;-80
2024/04/01 05:51:27;;;;;;;16.17;3.35;;;;;;;16.41;47.04;93061.41;5050369;28;20577;-80
2024/04/01 05:54:03;;;;;;;9.73;3.00;;;;;;;16.79;46.84;93069.13;5052716;28;20135;-79
2024/04/01 05:57:11;;;;;;;;;;;;;;;;;;;;;
2024/04/01 05:59:37;;;;;;;12.65;3.42;;;;;;;17.57;46.28;93136.97;5056283;28;20041;-81
2024/04/01 06:03:05;;;;;;;;;;;;;;;;;;;;;
2024/04/01 06:05:32;;;;;;;12.65;3.40;;;;;;;17.29;46.12;93067.06;5050162;28;20036;-80
2024/04/01 06:08:32;;;;;;;;;;;;;;;;;;;;;
2024/04/01 06:11:26;;;;;;;14.35;3.15;;;;;;;17.81;45.34;93087.94;5049742;28;20039;-80
2024/04/01 06:13:51;;;;;;;17.92;2.85;;;;;;;18.68;45.07;93187.09;5043954;28;20119;-80
2024/04/01 06:16:28;;;;;;;17.90;3.55;;;;;;;18.51;44.87;93140.56;5058258;28;20033;-80
2024/04/01 06:19:04;;;;;;;15.80;2.88;;;;;;;18.54;44.58;93127.00;5050224;28;20032;-79
2024/04/01 06:21:40;;;;;;;9.82;3.28;;;;;;;18.39;43.92;93063.59;5045761;28;20090;-80
2024/04/01 06:24:46;;;;;;;16.50;2.70;;;;;;;19.37;43.93;93176.34;5052013;28;20398;-80
2024/04/01 06:27:18;;;;;;;8.23;2.25;;;;;;;19.64;42.48;93162.19;5048692;28;20047;-81
2024/04/01 06:29:43;;;;;;;14.30;2.90;;;;;;;19.90;41.47;93183.69;5051805;28;20040;-79
2024/04/01 06:32:09;;;;;;;10.95;3.08;;;;;;;20.08;40.00;93184.16;5059625;28;20033;-79
2024/04/01 06:34:34;;;;;;;10.40;2.38;;;;;;;20.01;40.12;93150.56;5068078;28;20334;-80
2024/04/01 06:37:00;;;;;;;12.00;2.50;;;;;;;20.12;38.77;93146.06;5048663;28;20163;-79
2024/04/01 06:39:25;;;;;;;;;;;;;;;20.25;38.86;93168.16;5051938;28;20487;-79
2024/04/01 06:41:51;;;;;;;6.70;1.83;;;;;;;20.08;38.04;93145.03;5050722;28;20075;-79
2024/04/01 06:44:17;;;;;;;8.68;1.95;;;;;;;20.48;38.19;93162.53;5055520;28;20029;-79
2024/04/01 06:46:42;;;;;;;16.20;3.33;;;;;;;20.68;38.28;93162.38;5055078;28;20459;-79
2024/04/01 06:49:08;;;;;;;11.43;2.45;;;;;;;20.67;36.92;93160.03;5049392;28;20364;-79
2024/04/01 06:51:33;;;;;;;;;;;;;;;20.88;36.83;93172.94;5051697;28;20037;-79
2024/04/01 06:53:59;;;;;;;13.52;2.88;;;;;;;21.00;37.18;93159.50;5056213;28;19916;-78
2024/04/01 06:56:24;;;;;;;14.18;3.35;;;;;;;21.27;35.88;93169.44;5051351;28;20405;-79
2024/04/01 06:58:50;;;;;;;;;;;;;;;21.40;36.64;93180.25;5052917;28;20115;-79
2024/04/01 07:01:16;;;;;;;15.60;2.42;;;;;;;21.38;35.84;93175.31;5049059;28;20305;-78
2024/04/01 07:03:41;;;;;;;;;;;;;;;21.60;36.22;93169.59;5055301;28;20080;-79
2024/04/01 07:06:06;;;;;;;;;;;;;;;21.62;35.43;93177.91;5050026;28;20440;-79
2024/04/01 07:08:32;;;;;;;8.75;1.90;;;;;;;21.56;35.55;93167.81;5052176;28;19916;-79
2024/04/01 07:10:58;;;;;;;;;;;;;;;21.83;35.85;93177.72;5049791;28;20029;-79
2024/04/01 07:13:23;;;;;;;14.73;2.22;;;;;;;21.72;35.36;93163.97;5051740;28;19917;-78
2024/04/01 07:15:49;;;;;;;;;;;;;;;21.97;35.40;93177.00;5057353;28;20391;-78
2024/04/01 07:18:14;;;;;;;;;;;;;;;21.91;35.55;93178.13;5050043;28;20360;-79
2024/04/01 07:20:39;;;;;;;9.90;2.33;;;;;;;21.63;34.24;93145.50;5054230;28;20403;-79
2024/04/01 07:23:05;;;;;;;;;;;;;;;22.01;35.02;93173.56;5052583;28;20031;-80
2024/04/01 07:25:30;;;;;;;10.40;2.03;;;;;;;22.17;34.33;93173.31;5052371;28;20538;-80
2024/04/01 07:27:56;;;;;;;;;;;;;;;22.33;34.26;93168.66;5051136;28;20044;-80
2024/04/01 07:30:21;;;;;;;;;;;;;;;22.38;33.36;93171.22;5052886;28;19916;-81
2024/04/01 07:32:47;;;;;;;13.07;2.20;;;;;;;22.35;34.12;93150.84;5064370;28;19912;-80
2024/04/01 07:35:12;;;;;;;;;;;;;;;22.75;33.42;93181.16;5051722;28;20044;-80
2024/04/01 07:37:37;;;;;;;15.83;2.63;;;;;;;22.74;32.99;93188.25;5057302;28;20398;-80
2024/04/01 07:40:03;;;;;;;;;;;;;;;23.00;32.23;93193.03;5052392;28;20277;-80
2024/04/01 07:42:28;;;;;;;;;;;;;;;23.02;31.61;93192.75;5061776;28;20398;-80
2024/04/01 07:44:54;;;;;;;11.95;2.03;;;;;;;22.94;31.73;93178.47;5056722;28;19916;-80
2024/04/01 07:47:19;;;;;;;;;;;;;;;23.07;31.22;93195.28;5059307;28;20045;-79
2024/04/01 07:49:46;;;;;;;15.25;2.83;;;;;;;23.37;32.30;93182.75;5062628;28;19943;-79
2024/04/01 07:52:11;;;;;;;14.07;2.83;;;;;;;23.33;30.35;93163.44;5053963;28;20032;-79
2024/04/01 07:54:37;;;;;;;;;;;;;;;23.56;30.52;93195.75;5054263;28;20600;-79
2024/04/01 07:57:03;;;;;;;14.35;2.53;;;;;;;23.56;30.73;93190.50;5058072;28;20294;-79
2024/04/01 07:59:33;;;;;;;16.50;2.40;;;;;;;23.56;30.02;93176.63;5052840;28;20064;-79
2024/04/01 08:02:06;;;;;;;15.15;2.83;;;;;;;23.58;30.16;93162.16;5057054;28;20461;-79
2024/04/01 08:04:31;;;;;;;13.52;2.90;;;;;;;23.79;30.16;93161.75;5056330;28;20060;-80
2024/04/01 08:06:56;;;;;;;;;;;;;;;24.17;30.00;93189.59;5054453;28;20067;-79
2024/04/01 08:09:22;;;;;;;20.23;4.22;;;;;;;23.75;30.35;93147.69;5060876;28;19916;-78
2024/04/01 08:11:51;;;;;;;;;;;;;;;23.97;30.47;93180.28;5055023;28;20029;-78
2024/04/01 08:14:19;;;;;;;12.38;2.35;;;;;;;23.86;29.82;93124.63;5062531;28;19917;-79
2024/04/01 08:16:46;;;;;;;12.00;3.08;;;;;;;23.97;29.51;93141.69;5058587;28;20070;-79
2024/04/01 08:19:11;;;;;;;8.52;2.08;;;;;;;24.21;29.42;93151.19;5061740;28;20091;-79
2024/04/01 08:21:37;;;;;;;;;;;;;;;24.50;29.94;93171.03;5051933;28;20479;-78
2024/04/01 08:24:03;;;;;;;17.60;5.03;;;;;;;24.48;29.44;93146.16;5059254;28;19978;-79
2024/04/01 08:26:28;;;;;;;;;;;;;;;24.74;29.22;93166.53;5059828;28;20044;-78
2024/04/01 08:28:54;;;;;;;16.55;3.15;;;;;;;24.74;28.46;93161.28;5051474;28;19963;-79
2024/04/01 08:31:20;;;;;;;14.48;2.70;;;;;;;24.99;27.61;93172.28;5055307;28;20059;-79
2024/04/01 08:33:45;;;;;;;;;;;;;;;25.01;27.69;93163.00;5059068;28;20584;-79
2024/04/01 08:36:11;;;;;;;;;;;;;;;25.11;27.54;93166.44;5053207;28;19917;-79
2024/04/01 08:38:36;;;;;;;;;;;;;;;25.22;27.93;93170.34;5063605;28;19940;-79
2024/04/01 08:41:20;;;;;;;;;;;;;;;25.26;27.60;93170.56;5053147;28;19936;-79
2024/04/01 08:44:13;;;;;;;14.48;3.20;;;;;;;25.43;27.57;93165.34;5056123;28;19917;-78
2024/04/01 08:46:44;;;;;;;21.88;2.95;;;;;;;25.24;27.75;93134.03;5056223;28;20507;-78
2024/04/01 08:49:11;;;;;;;19.75;4.70;;;;;;;25.46;27.98;93153.44;5055897;28;20481;-79
2024/04/01 08:51:38;;;;;;;20.83;4.10;;;;;;;25.56;26.98;93149.78;5052055;28;20083;-80
2024/04/01 08:54:07;;;;;;;17.10;2.80;;;;;;;25.55;26.51;93164.78;5052509;28;20045;-79
2024/04/01 08:56:33;;;;;;;15.48;4.15;;;;;;;25.49;26.40;93145.72;5056270;28;20410;-79
2024/04/01 08:58:59;;;;;;;;;;;;;;;25.66;26.76;93148.72;5053686;28;20040;-79
2024/04/01 09:01:25;;;;;;;18.00;3.70;;;;;;;25.63;27.44;93133.56;5052894;28;19967;-79
2024/04/01 09:03:52;;;;;;;26.10;4.60;;;;;;;25.72;26.82;93121.97;5050427;28;20024;-79
2024/04/01 09:06:18;;;;;;;16.10;3.75;;;;;;;25.83;26.46;93130.34;5050962;28;20041;-79
2024/04/01 09:08:45;;;;;;;16.77;3.33;;;;;;;25.93;25.97;93124.03;5055297;28;20032;-79
2024/04/01 09:11:11;;;;;;;17.20;4.20;;;;;;;26.01;26.00;93090.91;5053341;28;20028;-79
2024/04/01 09:13:37;;;;;;;16.70;3.20;;;;;;;26.20;26.27;93118.75;5064783;28;20041;-79
2024/04/01 09:16:03;;;;;;;17.83;4.28;;;;;;;26.07;26.33;93087.03;5060474;28;20027;-79
2024/04/01 09:18:36;;;;;;;18.42;3.97;;;;;;;26.29;26.41;93101.13;5061290;28;20028;-79
2024/04/01 09:21:02;;;;;;;28.42;4.47;;;;;;;26.52;27.13;93093.81;5052820;28;20437;-79
2024/04/01 09:23:30;;;;;;;17.20;3.40;;;;;;;26.64;27.28;93100.28;5056062;28;20115;-79
2024/04/01 09:25:58;;;;;;;24.17;3.53;;;;;;;26.68;26.59;93077.50;5052738;28;20047;-79
2024/04/01 09:28:24;;;;;;;20.15;4.28;;;;;;;26.88;27.09;93081.31;5049369;28;20036;-79
2024/04/01 09:30:50;;;;;;;24.27;4.35;;;;;;;26.98;26.73;93071.53;5053555;28;20036;-79
2024/04/01 09:33:15;;;;;;;19.23;4.03;;;;;;;27.38;25.86;93083.59;5052052;28;20043;-80
2024/04/01 09:35:41;;;;;;;20.63;4.47;;;;;;;27.56;26.63;93090.31;5054144;28;20105;-79
2024/04/01 09:38:08;;;;;;;24.00;3.83;;;;;;;27.50;25.70;93064.44;5051528;28;20508;-80
2024/04/01 09:40:33;;;;;;;22.85;3.90;;;;;;;27.21;25.54;93074.69;5052994;28;20029;-80
2024/04/01 09:43:00;;;;;;;15.70;3.47;;;;;;;27.09;26.49;93067.47;5050160;28;20045;-80
2024/04/01 09:45:28;;;;;;;19.42;4.88;;;;;;;26.96;26.25;93063.94;5058094;28;20177;-81
2024/04/01 09:47:54;;;;;;;20.90;4.63;;;;;;;27.14;26.02;93088.38;5049516;28;20041;-80
2024/04/01 09:50:24;;;;;;;18.45;3.88;;;;;;;26.75;26.25;93058.59;5061398;28;20047;-80
2024/04/01 09:52:50;;;;;;;18.52;4.05;;;;;;;27.08;26.77;93084.38;5048983;28;20105;-79
2024/04/01 09:55:20;;;;;;;17.25;3.88;;;;;;;26.91;26.36;93083.31;5049887;28;20021;-80
2024/04/01 09:58:33;;;;;;;17.58;4.00;;;;;;;26.70;26.79;93085.09;5058093;28;20028;-80
2024/04/01 10:01:17;;;;;;;16.80;4.55;;;;;;;26.54;27.03;93069.78;5042456;28;20569;-80
2024/04/01 10:03:48;;;;;;;25.02;4.88;;;;;;;26.79;26.64;93072.66;5053508;28;20573;-80
2024/04/01 10:06:32;;;;;;;17.92;4.63;;;;;;;26.90;27.37;93070.47;5051955;28;20054;-80
2024/04/01 10:09:08;;;;;;;;;;;;;;;27.08;27.41;93069.31;5055345;28;20495;-80
2024/04/01 10:11:42;;;;;;;21.73;4.00;;;;;;;27.12;27.10;93072.09;5055332;28;20355;-79
2024/04/01 10:14:14;;;;;;;24.80;5.07;;;;;;;27.11;26.60;93065.28;5055621;28;20036;-80
2024/04/01 10:17:13;;;;;;;29.33;5.47;;;;;;;27.07;26.24;93054.59;5054289;28;20041;-79
2024/04/01 10:20:13;;;;;;;18.23;4.25;;;;;;;26.93;26.29;93025.03;5056268;28;20395;-79
2024/04/01 10:22:47;;;;;;;20.35;4.03;;;;;;;27.21;26.20;93045.66;5058424;28;20075;-79
2024/04/01 10:25:49;;;;;;;23.83;5.03;;;;;;;27.36;25.42;93052.28;5058335;28;20036;-81
2024/04/01 10:28:52;;;;;;;28.88;4.60;;;;;;;27.54;25.61;93033.69;5056043;28;20041;-81
2024/04/01 10:31:39;;;;;;;24.42;7.00;;;;;;;27.40;23.45;93045.25;5054234;28;20143;-81
2024/04/01 10:34:13;;;;;;;35.40;6.70;;;;;;;27.42;23.89;93039.66;5052785;28;20043;-79
2024/04/01 10:37:15;;;;;;;20.83;5.93;;;;;;;27.40;24.43;93039.22;5051127;28;20033;-80
2024/04/01 10:39:57;;;;;;;29.70;5.70;;;;;;;27.35;24.13;93027.75;5052062;28;20108;-79
2024/04/01 10:42:22;;;;;;;34.08;6.60;;;;;;;27.30;22.91;93030.59;5058850;28;20033;-81
2024/04/01 10:45:26;;;;;;;25.55;6.25;;;;;;;27.25;23.25;93020.22;5056292;28;20364;-79
2024/04/01 10:48:04;;;;;;;33.80;6.82;;;;;;;27.19;23.78;93022.28;5039842;28;20041;-80
2024/04/01 10:50:29;;;;;;;37.25;6.78;;;;;;;27.19;23.17;93006.47;5056446;28;20040;-78
2024/04/01 10:53:09;;;;;;;28.73;6.43;;;;;;;27.29;24.03;92991.34;5052981;28;20032;-79
2024/04/01 10:55:55;;;;;;;35.33;6.10;;;;;;;27.68;24.00;93012.38;5051761;28;20151;-79
2024/04/01 10:58:43;;;;;;;29.05;6.15;;;;;;;27.45;23.58;92984.41;5050769;28;20086;-81
2024/04/01 11:01:14;;;;;;;30.40;5.75;;;;;;;27.76;23.28;93002.84;5060312;28;20077;-80
2024/04/01 11:03:55;;;;;;;26.92;6.72;;;;;;;27.92;23.41;93003.78;5048113;28;20045;-80
2024/04/01 11:06:39;;;;;;;33.58;7.60;;;;;;;27.81;23.88;92995.47;5052582;28;20039;-79
2024/04/01 11:09:16;;;;;;;21.13;6.75;;;;;;;27.94;23.97;93001.59;5055108;28;20041;-79
2024/04/01 11:11:56;;;;;;;29.58;7.30;;;;;;;28.00;24.13;92973.88;5060322;28;20033;-80
2024/04/01 11:14:24;;;;;;;31.85;6.05;;;;;;;28.37;23.16;92996.25;5061812;28;20029;-79
2024/04/01 11:16:54;;;;;;;27.25;6.93;;;;;;;28.39;23.58;92988.75;5057407;28;20055;-80
2024/04/01 11:19:39;;;;;;;35.72;6.50;;;;;;;27.98;23.40;92925.94;5056860;28;20037;-80
2024/04/01 11:22:11;;;;;;;29.13;5.95;;;;;;;28.23;22.97;92960.31;5052638;28;20066;-81
2024/04/01 11:25:18;;;;;;;31.10;6.35;;;;;;;28.46;22.69;92983.69;5062783;28;20112;-81
2024/04/01 11:27:53;;;;;;;39.72;7.18;;;;;;;28.32;22.84;92981.34;5059066;28;20421;-79
2024/04/01 11:30:23;;;;;;;29.53;7.40;;;;;;;28.19;22.86;92959.41;5053176;28;20072;-80
2024/04/01 11:32:57;;;;;;;27.40;7.03;;;;;;;28.49;23.14;92969.84;5059217;28;20108;-80
2024/04/01 11:35:26;;;;;;;25.20;5.37;;;;;;;28.59;22.69;92965.22;5051873;28;20124;-80
2024/04/01 11:38:03;;;;;;;23.75;6.20;;;;;;;28.49;23.08;92955.84;5053912;28;20285;-80
2024/04/01 11:40:33;;;;;;;28.55;6.85;;;;;;;28.41;22.87;92953.00;5050905;28;20044;-79
2024/04/01 11:43:04;;;;;;;26.67;5.95;;;;;;;28.48;23.91;92956.94;5054281;28;20033;-80
2024/04/01 11:45:33;;;;;;;27.02;5.88;;;;;;;28.67;23.58;92951.13;5054336;28;20239;-80
2024/04/01 11:47:59;;;;;;;20.73;6.50;;;;;;;28.40;23.39;92942.75;5056443;28;20036;-79
2024/04/01 11:50:25;;;;;;;23.55;6.18;;;;;;;28.56;24.18;92942.88;5059249;28;20028;-79
2024/04/01 11:52:57;;;;;;;32.28;6.07;;;;;;;28.44;23.38;92925.16;5056716;28;20024;-80
2024/04/01 11:55:24;;;;;;;30.85;7.03;;;;;;;28.57;22.83;92938.34;5052332;28;20033;-79
2024/04/01 11:57:50;;;;;;;25.08;6.38;;;;;;;28.26;23.37;92916.66;5056084;28;20071;-81